Anthony, New Mexico
Current Conditions -  °F | °C
As of 12:58 AM on Sunday 23 Nov 2014 (Local Time) from KBIF Reporting Station
Clear Clear  
Wind Chill: 54°   Ceiling: Unl
Heat Index: 54°   Visibility: 10mi
Dew Point: 19°   Wind: 7mph
Humidity: 26%   Direction: 220°SW
Pressure: 29.89"   Gusts: NA
Location:  32°N, 106.6°W
Report Text: KBIF 230758Z AUTO 22006KT 10SM CLR 12/M07 A2989 RMK AO2 SLP081 T01211072 $
Loading
Personal Weather Stations






























Interactive Weather Map New forecast layout! Learn more

10-Day Weather Forecast

Advertisements
Track Severe Weather on mobile